createdAt,value
2023-02-15T00:02:58.291Z,100804.47
2023-02-15T00:06:02.227Z,100808.78
2023-02-15T00:09:06.607Z,100809.22
2023-02-15T00:12:11.669Z,100813.16
2023-02-15T00:15:16.947Z,100809.97
2023-02-15T00:18:20.777Z,100804.38
2023-02-15T00:21:24.368Z,100816.25
2023-02-15T00:24:28.327Z,100817.16
2023-02-15T00:27:32.009Z,100814.13
2023-02-15T00:30:37.182Z,100815.81
2023-02-15T00:33:41.766Z,100809.53
2023-02-15T00:36:46.347Z,100808.66
2023-02-15T00:39:51.575Z,100819.25
2023-02-15T00:42:55.361Z,100811.72
2023-02-15T00:46:01.474Z,100820.66
2023-02-15T00:49:05.878Z,100829.09
2023-02-15T00:52:09.531Z,100816.81
2023-02-15T00:55:13.129Z,100813.41
2023-02-15T00:58:17.517Z,100803.78
2023-02-15T01:01:24.704Z,100800.28
2023-02-15T01:04:28.468Z,100813.28
2023-02-15T01:07:34.364Z,100814.91
2023-02-15T01:10:38.461Z,100804.53
2023-02-15T01:13:42.837Z,100801.84
2023-02-15T01:16:48.043Z,100792.34
2023-02-15T01:19:52.493Z,100796.25
2023-02-15T01:22:57.336Z,100793.75
2023-02-15T01:26:04.392Z,100788.94
2023-02-15T01:29:08.201Z,100777.97
2023-02-15T01:32:13.335Z,100783.00
2023-02-15T01:35:19.618Z,100781.56
2023-02-15T01:38:23.943Z,100782.09
2023-02-15T01:41:28.411Z,100788.56
2023-02-15T01:44:53.192Z,100795.94
2023-02-15T01:48:03.154Z,100803.13
2023-02-15T01:51:06.957Z,100803.19
2023-02-15T01:54:18.781Z,100806.72
2023-02-15T01:57:26.547Z,100807.44
2023-02-15T02:00:30.707Z,100810.13
2023-02-15T02:03:45.706Z,100813.72
2023-02-15T02:06:52.477Z,100817.25
2023-02-15T02:09:56.288Z,100819.84
2023-02-15T02:13:05.708Z,100817.75
2023-02-15T02:16:15.565Z,100822.03
2023-02-15T02:19:48.350Z,100830.78
2023-02-15T02:23:18.328Z,100825.50
2023-02-15T02:27:03.962Z,100832.88
2023-02-15T02:30:36.687Z,100830.53
2023-02-15T02:33:55.642Z,100831.34
2023-02-15T02:37:06.499Z,100834.78
2023-02-15T02:40:16.807Z,100825.00
2023-02-15T02:43:28.904Z,100832.38
2023-02-15T02:46:38.553Z,100832.09
2023-02-15T02:49:45.936Z,100825.22
2023-02-15T02:52:51.856Z,100833.09
2023-02-15T02:55:59.387Z,100830.00
2023-02-15T02:59:10.104Z,100830.44
2023-02-15T03:02:19.637Z,100837.19
2023-02-15T03:05:29.692Z,100829.72
2023-02-15T03:08:38.292Z,100842.94
2023-02-15T03:11:42.084Z,100842.13
2023-02-15T03:14:49.161Z,100842.56
2023-02-15T03:17:58.261Z,100848.47
2023-02-15T03:21:06.232Z,100852.16
2023-02-15T03:24:16.307Z,100837.13
2023-02-15T03:27:24.971Z,100836.88
2023-02-15T03:30:32.234Z,100838.72
2023-02-15T03:33:40.878Z,100839.25
2023-02-15T03:36:48.941Z,100844.19
2023-02-15T03:39:57.950Z,100838.50
2023-02-15T03:43:07.554Z,100842.28
2023-02-15T03:46:18.145Z,100843.34
2023-02-15T03:49:27.276Z,100848.22
2023-02-15T03:52:34.894Z,100850.38
2023-02-15T03:55:38.715Z,100850.38
2023-02-15T03:58:59.716Z,100855.66
2023-02-15T04:02:15.863Z,100858.84
2023-02-15T04:05:19.707Z,100861.63
2023-02-15T04:08:45.433Z,100857.03
2023-02-15T04:11:48.086Z,100858.38
2023-02-15T04:15:09.115Z,100855.19
2023-02-15T04:18:13.160Z,100863.22
2023-02-15T04:21:34.659Z,100859.75
2023-02-15T04:24:57.006Z,100860.81
2023-02-15T04:28:00.653Z,100874.19
2023-02-15T04:31:04.224Z,100874.69
2023-02-15T04:34:07.975Z,100876.19
2023-02-15T04:37:12.586Z,100884.88
2023-02-15T04:40:19.717Z,100879.75
2023-02-15T04:43:23.507Z,100885.25
2023-02-15T04:46:27.498Z,100881.06
2023-02-15T04:49:31.065Z,100893.09
2023-02-15T04:52:34.632Z,100897.44
2023-02-15T04:55:39.676Z,100903.00
2023-02-15T04:58:43.425Z,100912.88
2023-02-15T05:01:47.034Z,100914.13
2023-02-15T05:04:50.534Z,100911.34
2023-02-15T05:07:54.257Z,100913.19
2023-02-15T05:10:59.861Z,100918.84
2023-02-15T05:14:03.414Z,100918.81
2023-02-15T05:17:06.976Z,100928.09
2023-02-15T05:20:11.732Z,100935.28
2023-02-15T05:23:15.615Z,100938.25
2023-02-15T05:26:39.747Z,100935.44
2023-02-15T05:29:43.312Z,100943.25
2023-02-15T05:32:47.127Z,100938.31
2023-02-15T05:35:50.921Z,100939.78
2023-02-15T05:38:54.580Z,100948.38
2023-02-15T05:42:02.728Z,100954.38
2023-02-15T05:45:07.351Z,100956.41
2023-02-15T05:48:11.164Z,100960.47
2023-02-15T05:51:17.090Z,100954.16
2023-02-15T05:54:20.646Z,100965.22
2023-02-15T05:57:25.701Z,100964.66
2023-02-15T06:00:29.434Z,100969.31
2023-02-15T06:03:33.121Z,100972.13
2023-02-15T06:06:37.105Z,100978.78
2023-02-15T06:09:40.853Z,100978.66
2023-02-15T06:12:46.463Z,100987.97
2023-02-15T06:15:50.325Z,100976.09
2023-02-15T06:18:54.087Z,100974.47
2023-02-15T06:21:57.884Z,100988.31
2023-02-15T06:25:01.723Z,100984.63
2023-02-15T06:28:07.247Z,100980.66
2023-02-15T06:31:11.457Z,100985.47
2023-02-15T06:34:15.322Z,100985.69
2023-02-15T06:37:19.087Z,100978.75
2023-02-15T06:40:22.984Z,100994.63
2023-02-15T06:43:28.128Z,100985.81
2023-02-15T06:46:31.923Z,100985.75
2023-02-15T06:49:35.612Z,100994.97
2023-02-15T06:52:39.464Z,100994.13
2023-02-15T06:55:43.282Z,100991.06
2023-02-15T06:58:50.608Z,100997.72
2023-02-15T07:01:54.449Z,101002.22
2023-02-15T07:04:58.268Z,100990.03
2023-02-15T07:08:02.251Z,100983.72
2023-02-15T07:11:20.566Z,100977.44
2023-02-15T07:14:28.118Z,100988.84
2023-02-15T07:17:35.924Z,100984.25
2023-02-15T07:20:42.746Z,100982.16
2023-02-15T07:23:46.495Z,100980.19
2023-02-15T07:26:50.195Z,100978.34
2023-02-15T07:29:55.401Z,100976.22
2023-02-15T07:33:17.375Z,100969.97
2023-02-15T07:36:21.316Z,100985.09
2023-02-15T07:39:25.035Z,100974.22
2023-02-15T07:42:28.736Z,100980.75
2023-02-15T07:45:34.364Z,100981.91
2023-02-15T07:48:39.444Z,100983.84
2023-02-15T07:51:43.361Z,100982.75
2023-02-15T07:54:47.130Z,100983.97
2023-02-15T07:57:52.108Z,100992.06
2023-02-15T08:01:02.987Z,100986.38
2023-02-15T08:04:08.780Z,100990.50
2023-02-15T08:07:12.566Z,100990.97
2023-02-15T08:10:36.329Z,100980.91
2023-02-15T08:13:54.816Z,100980.34
2023-02-15T08:17:03.897Z,100978.88
2023-02-15T08:20:08.810Z,100981.19
2023-02-15T08:23:12.594Z,100977.88
2023-02-15T08:26:18.110Z,100983.47
2023-02-15T08:29:23.614Z,100982.13
2023-02-15T08:32:29.264Z,100987.47
2023-02-15T08:35:32.922Z,100999.19
2023-02-15T08:38:36.806Z,100990.38
2023-02-15T08:41:42.354Z,100981.06
2023-02-15T08:44:46.235Z,100982.53
2023-02-15T08:47:51.478Z,100981.31
2023-02-15T08:50:55.321Z,100987.47
2023-02-15T08:54:01.151Z,100987.81
2023-02-15T08:57:04.952Z,100991.13
2023-02-15T09:00:10.213Z,100996.78
2023-02-15T09:03:15.503Z,100989.59
2023-02-15T09:06:19.883Z,100985.13
2023-02-15T09:09:24.302Z,100990.63
2023-02-15T09:12:28.042Z,100987.16
2023-02-15T09:15:31.878Z,100984.47
2023-02-15T09:18:39.101Z,100975.31
2023-02-15T09:21:43.280Z,100973.63
2023-02-15T09:24:46.948Z,100969.84
2023-02-15T09:27:50.787Z,100960.19
2023-02-15T09:30:54.651Z,100960.16
2023-02-15T09:34:02.049Z,100959.47
2023-02-15T09:37:08.067Z,100962.16
2023-02-15T09:40:17.739Z,100957.06
2023-02-15T09:43:32.333Z,100956.50
2023-02-15T09:46:49.869Z,100948.88
2023-02-15T09:50:04.471Z,100946.94
2023-02-15T09:53:35.508Z,100950.00
2023-02-15T09:56:46.206Z,100943.91
2023-02-15T09:59:58.815Z,100940.56
2023-02-15T10:03:18.825Z,100934.97
2023-02-15T10:06:34.450Z,100922.06
2023-02-15T10:09:51.415Z,100935.53
2023-02-15T10:13:10.815Z,100920.78
2023-02-15T10:16:29.219Z,100924.72
2023-02-15T10:19:45.073Z,100918.59
2023-02-15T10:23:11.208Z,100916.16
2023-02-15T10:26:20.842Z,100918.06
2023-02-15T10:29:34.364Z,100914.75
2023-02-15T10:32:44.102Z,100898.16
2023-02-15T10:35:56.486Z,100901.47
2023-02-15T10:39:09.962Z,100901.59
2023-02-15T10:42:20.160Z,100892.72
2023-02-15T10:45:33.354Z,100885.78
2023-02-15T10:49:13.857Z,100890.88
2023-02-15T10:52:31.722Z,100882.28
2023-02-15T10:55:53.444Z,100883.88
2023-02-15T10:59:22.851Z,100883.47
2023-02-15T11:02:38.531Z,100874.00
2023-02-15T11:05:56.130Z,100877.31
2023-02-15T11:09:07.441Z,100870.50
2023-02-15T11:12:17.571Z,100870.41
2023-02-15T11:15:28.687Z,100866.72
2023-02-15T11:18:37.040Z,100863.06
2023-02-15T11:21:46.012Z,100858.84
2023-02-15T11:24:50.254Z,100857.16
2023-02-15T11:27:57.070Z,100851.94
2023-02-15T11:31:07.877Z,100841.28
2023-02-15T11:34:20.071Z,100830.56
2023-02-15T11:37:31.288Z,100828.66
2023-02-15T11:40:38.558Z,100828.47
2023-02-15T11:43:50.641Z,100824.41
2023-02-15T11:46:55.214Z,100816.13
2023-02-15T11:49:59.939Z,100812.28
2023-02-15T11:53:07.027Z,100815.28
2023-02-15T11:56:17.592Z,100816.03
2023-02-15T11:59:32.738Z,100813.16
2023-02-15T12:02:40.035Z,100801.06
2023-02-15T12:05:48.108Z,100799.47
2023-02-15T12:08:58.380Z,100795.56
2023-02-15T12:12:24.338Z,100795.34
2023-02-15T12:15:36.497Z,100797.47
2023-02-15T12:18:43.009Z,100796.13
2023-02-15T12:21:51.695Z,100795.94
2023-02-15T12:24:58.778Z,100801.72
2023-02-15T12:28:02.620Z,100795.88
2023-02-15T12:31:21.447Z,100789.81
2023-02-15T12:34:28.440Z,100792.84
2023-02-15T12:37:35.992Z,100789.84
2023-02-15T12:40:41.416Z,100796.47
2023-02-15T12:43:46.478Z,100781.25
2023-02-15T12:47:02.099Z,100773.53
2023-02-15T12:50:18.190Z,100778.78
2023-02-15T12:53:24.628Z,100773.13
2023-02-15T12:56:29.998Z,100766.56
2023-02-15T12:59:33.736Z,100767.47
2023-02-15T13:02:45.359Z,100772.75
2023-02-15T13:05:54.378Z,100773.53
2023-02-15T13:09:00.832Z,100773.44
2023-02-15T13:12:14.511Z,100764.72
2023-02-15T13:15:28.943Z,100759.06
2023-02-15T13:18:38.942Z,100766.00
2023-02-15T13:21:46.755Z,100764.84
2023-02-15T13:24:57.173Z,100759.75
2023-02-15T13:28:05.077Z,100760.41
2023-02-15T13:31:16.518Z,100764.59
2023-02-15T13:34:27.397Z,100753.44
2023-02-15T13:37:58.125Z,100755.53
2023-02-15T13:41:06.604Z,100750.09
2023-02-15T13:44:19.657Z,100749.34
2023-02-15T13:47:29.585Z,100754.34
2023-02-15T13:50:50.975Z,100742.97
2023-02-15T13:54:26.367Z,100741.16
2023-02-15T13:57:47.092Z,100749.25
2023-02-15T14:01:01.848Z,100743.13
2023-02-15T14:04:24.496Z,100743.75
2023-02-15T14:07:44.466Z,100737.09
2023-02-15T14:10:59.164Z,100745.38
2023-02-15T14:14:29.821Z,100742.91
2023-02-15T14:17:46.910Z,100742.44
2023-02-15T14:21:01.909Z,100737.31
2023-02-15T14:24:23.587Z,100749.91
2023-02-15T14:27:40.569Z,100743.16
2023-02-15T14:30:49.470Z,100743.88
2023-02-15T14:33:57.751Z,100744.22
2023-02-15T14:37:01.933Z,100740.00
2023-02-15T14:40:32.276Z,100743.19
2023-02-15T14:43:57.368Z,100741.34
2023-02-15T14:47:08.619Z,100746.03
2023-02-15T14:50:43.917Z,100745.63
2023-02-15T14:53:48.580Z,100750.78
2023-02-15T14:57:26.445Z,100748.84
2023-02-15T15:00:40.767Z,100756.72
2023-02-15T15:03:54.221Z,100754.97
2023-02-15T15:07:08.086Z,100747.03
2023-02-15T15:10:38.951Z,100750.09
2023-02-15T15:14:03.043Z,100750.38
2023-02-15T15:17:08.004Z,100753.41
2023-02-15T15:20:17.659Z,100755.91
2023-02-15T15:23:43.783Z,100746.91
2023-02-15T15:26:51.994Z,100752.66
2023-02-15T15:29:57.430Z,100751.53
2023-02-15T15:33:15.728Z,100754.72
2023-02-15T15:37:04.457Z,100765.31
2023-02-15T15:40:50.470Z,100761.72
2023-02-15T15:44:32.466Z,100753.97
2023-02-15T15:47:58.762Z,100762.94
2023-02-15T15:51:17.150Z,100771.25
2023-02-15T15:54:23.247Z,100777.94
2023-02-15T15:57:31.289Z,100775.84
2023-02-15T16:00:43.279Z,100778.59
2023-02-15T16:03:57.464Z,100787.13
2023-02-15T16:07:17.148Z,100784.69
2023-02-15T16:10:26.011Z,100789.53
2023-02-15T16:13:30.161Z,100789.06
2023-02-15T16:16:34.226Z,100796.09
2023-02-15T16:19:42.638Z,100787.91
2023-02-15T16:22:46.830Z,100791.69
2023-02-15T16:26:03.763Z,100786.06
2023-02-15T16:29:17.124Z,100792.75
2023-02-15T16:32:23.826Z,100789.28
2023-02-15T16:35:29.135Z,100797.41
2023-02-15T16:39:02.347Z,100801.22
2023-02-15T16:42:06.688Z,100803.56
2023-02-15T16:45:17.378Z,100804.03
2023-02-15T16:48:26.267Z,100792.06
2023-02-15T16:51:34.647Z,100799.44
2023-02-15T16:54:38.684Z,100795.31
2023-02-15T16:57:46.466Z,100803.44
2023-02-15T17:00:50.597Z,100798.44
2023-02-15T17:04:13.899Z,100804.88
2023-02-15T17:07:20.682Z,100811.59
2023-02-15T17:10:37.656Z,100833.44
2023-02-15T17:13:41.770Z,100818.84
2023-02-15T17:16:50.603Z,100824.84
2023-02-15T17:19:57.302Z,100824.09
2023-02-15T17:23:03.137Z,100824.81
2023-02-15T17:26:16.662Z,100821.72
2023-02-15T17:29:34.956Z,100829.09
2023-02-15T17:32:39.411Z,100833.38
2023-02-15T17:35:43.088Z,100839.06
2023-02-15T17:39:06.605Z,100832.81
2023-02-15T17:42:10.342Z,100837.44
2023-02-15T17:45:15.429Z,100835.75
2023-02-15T17:48:24.319Z,100837.75
2023-02-15T17:51:28.227Z,100833.59
2023-02-15T17:54:50.808Z,100841.38
2023-02-15T17:57:54.556Z,100845.75
2023-02-15T18:01:19.277Z,100848.78
2023-02-15T18:04:41.112Z,100850.84
2023-02-15T18:08:02.162Z,100856.97
2023-02-15T18:11:24.536Z,100849.03
2023-02-15T18:14:28.363Z,100850.38
2023-02-15T18:17:36.325Z,100842.66
2023-02-15T18:20:41.995Z,100849.31
2023-02-15T18:23:46.128Z,100843.19
2023-02-15T18:26:51.837Z,100854.00
2023-02-15T18:29:55.608Z,100851.25
2023-02-15T18:33:01.161Z,100850.09
2023-02-15T18:36:06.944Z,100845.88
2023-02-15T18:39:26.060Z,100845.59
2023-02-15T18:42:34.593Z,100852.16
2023-02-15T18:45:40.298Z,100849.25
2023-02-15T18:48:46.545Z,100855.84
2023-02-15T18:51:50.466Z,100859.00
2023-02-15T18:54:57.554Z,100864.78
2023-02-15T18:58:03.229Z,100865.75
2023-02-15T19:01:07.236Z,100863.94
2023-02-15T19:04:10.966Z,100872.38
2023-02-15T19:07:19.901Z,100863.50
2023-02-15T19:10:25.901Z,100875.84
2023-02-15T19:13:31.280Z,100877.91
2023-02-15T19:16:37.883Z,100875.78
2023-02-15T19:19:41.872Z,100877.88
2023-02-15T19:22:46.954Z,100881.63
2023-02-15T19:25:52.704Z,100880.56
2023-02-15T19:28:57.887Z,100886.50
2023-02-15T19:32:01.984Z,100894.06
2023-02-15T19:35:06.553Z,100890.72
2023-02-15T19:38:18.869Z,100894.78
2023-02-15T19:41:26.364Z,100892.50
2023-02-15T19:44:31.636Z,100897.50
2023-02-15T19:47:35.352Z,100898.97
2023-02-15T19:50:39.192Z,100900.63
2023-02-15T19:53:42.940Z,100903.19
2023-02-15T19:56:46.752Z,100900.44
2023-02-15T19:59:52.095Z,100904.59
2023-02-15T20:02:56.269Z,100912.84
2023-02-15T20:06:00.098Z,100907.22
2023-02-15T20:09:05.403Z,100912.28
2023-02-15T20:12:21.091Z,100910.44
2023-02-15T20:15:29.031Z,100914.31
2023-02-15T20:18:33.031Z,100923.59
2023-02-15T20:21:37.410Z,100922.81
2023-02-15T20:24:41.233Z,100920.00
2023-02-15T20:27:45.021Z,100926.06
2023-02-15T20:30:51.060Z,100925.22
2023-02-15T20:33:55.404Z,100925.00
2023-02-15T20:36:59.452Z,100925.41
2023-02-15T20:40:03.192Z,100922.91
2023-02-15T20:43:16.571Z,100916.03
2023-02-15T20:46:21.807Z,100914.97
2023-02-15T20:49:26.714Z,100913.47
2023-02-15T20:52:30.480Z,100910.97
2023-02-15T20:55:34.301Z,100905.88
2023-02-15T20:58:38.733Z,100903.75
2023-02-15T21:01:44.131Z,100903.53
2023-02-15T21:04:48.114Z,100904.16
2023-02-15T21:07:53.134Z,100899.97
2023-02-15T21:10:56.982Z,100898.63
2023-02-15T21:14:00.704Z,100903.28
2023-02-15T21:17:06.092Z,100904.03
2023-02-15T21:20:14.683Z,100901.66
2023-02-15T21:23:21.501Z,100900.09
2023-02-15T21:26:25.304Z,100901.22
2023-02-15T21:29:31.072Z,100896.41
2023-02-15T21:32:36.960Z,100908.19
2023-02-15T21:35:40.983Z,100898.81
2023-02-15T21:38:45.523Z,100902.47
2023-02-15T21:42:08.575Z,100903.81
2023-02-15T21:45:34.066Z,100901.03
2023-02-15T21:48:39.283Z,100908.13
2023-02-15T21:52:00.423Z,100916.16
2023-02-15T21:55:07.413Z,100915.66
2023-02-15T21:58:20.443Z,100912.50
2023-02-15T22:01:26.410Z,100918.34
2023-02-15T22:04:32.481Z,100914.34
2023-02-15T22:07:36.260Z,100912.66
2023-02-15T22:10:40.393Z,100922.75
2023-02-15T22:13:45.319Z,100932.59
2023-02-15T22:16:49.171Z,100933.03
2023-02-15T22:19:54.510Z,100924.56
2023-02-15T22:22:58.385Z,100932.09
2023-02-15T22:26:06.418Z,100928.84
2023-02-15T22:29:15.260Z,100928.56
2023-02-15T22:32:20.491Z,100927.34
2023-02-15T22:35:28.159Z,100927.91
2023-02-15T22:38:31.974Z,100936.91
2023-02-15T22:41:35.752Z,100933.78
2023-02-15T22:44:39.758Z,100926.59
2023-02-15T22:47:43.547Z,100926.66
2023-02-15T22:50:48.790Z,100935.59
2023-02-15T22:53:53.999Z,100926.41
2023-02-15T22:56:57.805Z,100938.94
2023-02-15T23:00:02.041Z,100942.53
2023-02-15T23:03:15.100Z,100937.44
2023-02-15T23:06:20.414Z,100934.88
2023-02-15T23:09:24.076Z,100931.88
2023-02-15T23:12:50.456Z,100935.84
2023-02-15T23:15:57.289Z,100934.81
2023-02-15T23:19:01.083Z,100936.19
2023-02-15T23:22:06.327Z,100940.56
2023-02-15T23:25:12.304Z,100941.19
2023-02-15T23:28:21.387Z,100942.72
2023-02-15T23:31:27.768Z,100942.34
2023-02-15T23:34:31.886Z,100948.91
2023-02-15T23:37:37.010Z,100941.75
2023-02-15T23:40:58.130Z,100949.28
2023-02-15T23:44:04.980Z,100946.81
2023-02-15T23:47:20.005Z,100955.59
2023-02-15T23:50:25.863Z,100947.75
2023-02-15T23:53:31.457Z,100947.75
2023-02-15T23:56:35.267Z,100955.16
2023-02-15T23:59:46.828Z,100947.59
